createdAt,value
2022-08-30T00:02:25.367Z,101374.34
2022-08-30T00:04:54.401Z,101381.44
2022-08-30T00:07:22.246Z,101381.16
2022-08-30T00:09:49.447Z,101375.19
2022-08-30T00:12:16.789Z,101373.56
2022-08-30T00:14:43.992Z,101368.66
2022-08-30T00:17:13.663Z,101386.31
2022-08-30T00:19:42.740Z,101377.84
2022-08-30T00:22:10.333Z,101374.66
2022-08-30T00:24:38.351Z,101375.47
2022-08-30T00:27:08.155Z,101369.75
2022-08-30T00:29:37.864Z,101375.19
2022-08-30T00:32:05.681Z,101364.56
2022-08-30T00:34:32.981Z,101375.19
2022-08-30T00:37:00.446Z,101369.75
2022-08-30T00:39:28.972Z,101376.84
2022-08-30T00:41:56.179Z,101382.50
2022-08-30T00:44:24.280Z,101368.63
2022-08-30T00:46:53.955Z,101368.38
2022-08-30T00:49:21.080Z,101370.28
2022-08-30T00:51:48.735Z,101372.91
2022-08-30T00:54:17.050Z,101367.53
2022-08-30T00:56:44.658Z,101369.75
2022-08-30T00:59:12.127Z,101373.84
2022-08-30T01:01:39.498Z,101369.78
2022-08-30T01:04:08.880Z,101375.72
2022-08-30T01:06:39.995Z,101370.50
2022-08-30T01:09:09.106Z,101375.72
2022-08-30T01:11:38.196Z,101374.25
2022-08-30T01:14:06.754Z,101372.16
2022-08-30T01:16:35.594Z,101369.16
2022-08-30T01:19:03.924Z,101366.94
2022-08-30T01:21:51.754Z,101375.91
2022-08-30T01:24:22.111Z,101373.03
2022-08-30T01:26:49.285Z,101378.91
2022-08-30T01:29:23.149Z,101378.72
2022-08-30T01:31:50.309Z,101375.47
2022-08-30T01:34:17.675Z,101371.34
2022-08-30T01:36:46.552Z,101374.91
2022-08-30T01:39:16.654Z,101377.84
2022-08-30T01:41:44.009Z,101375.72
2022-08-30T01:44:13.727Z,101367.56
2022-08-30T01:46:46.580Z,101381.97
2022-08-30T01:49:23.066Z,101378.94
2022-08-30T01:52:00.582Z,101381.16
2022-08-30T01:54:37.954Z,101384.75
2022-08-30T01:57:12.099Z,101382.78
2022-08-30T01:59:42.967Z,101387.31
2022-08-30T02:02:11.022Z,101383.75
2022-08-30T02:04:38.257Z,101384.06
2022-08-30T02:07:05.738Z,101376.63
2022-08-30T02:09:35.252Z,101385.94
2022-08-30T02:12:05.237Z,101382.16
2022-08-30T02:14:32.490Z,101393.59
2022-08-30T02:16:59.673Z,101384.94
2022-08-30T02:19:26.797Z,101388.69
2022-08-30T02:21:53.917Z,101391.69
2022-08-30T02:24:21.342Z,101385.66
2022-08-30T02:26:53.164Z,101384.88
2022-08-30T02:29:22.501Z,101383.50
2022-08-30T02:31:50.160Z,101379.28
2022-08-30T02:34:21.271Z,101376.63
2022-08-30T02:36:48.874Z,101372.78
2022-08-30T02:39:16.575Z,101367.84
2022-08-30T02:41:43.948Z,101369.41
2022-08-30T02:44:11.512Z,101368.53
2022-08-30T02:46:40.175Z,101375.50
2022-08-30T02:49:30.266Z,101369.16
2022-08-30T02:51:56.012Z,101371.75
2022-08-30T02:54:23.120Z,101378.69
2022-08-30T02:56:51.181Z,101364.41
2022-08-30T02:59:18.912Z,101379.25
2022-08-30T03:01:46.168Z,101379.50
2022-08-30T03:04:13.460Z,101381.03
2022-08-30T03:06:40.595Z,101388.41
2022-08-30T03:09:07.849Z,101394.94
2022-08-30T03:11:34.979Z,101382.38
2022-08-30T03:14:04.387Z,101389.97
2022-08-30T03:16:31.609Z,101391.91
2022-08-30T03:18:58.860Z,101396.47
2022-08-30T03:21:28.024Z,101388.81
2022-08-30T03:23:55.179Z,101391.06
2022-08-30T03:26:22.323Z,101397.59
2022-08-30T03:28:49.597Z,101395.47
2022-08-30T03:31:16.784Z,101397.25
2022-08-30T03:33:44.098Z,101401.03
2022-08-30T03:36:12.150Z,101397.47
2022-08-30T03:38:43.019Z,101394.09
2022-08-30T03:41:10.469Z,101401.13
2022-08-30T03:43:37.653Z,101403.19
2022-08-30T03:46:11.089Z,101400.91
2022-08-30T03:48:38.307Z,101404.03
2022-08-30T03:51:06.028Z,101404.91
2022-08-30T03:53:33.526Z,101403.47
2022-08-30T03:56:02.187Z,101402.50
2022-08-30T03:58:29.313Z,101406.34
2022-08-30T04:00:56.490Z,101399.06
2022-08-30T04:03:26.118Z,101400.91
2022-08-30T04:05:54.652Z,101406.44
2022-08-30T04:08:23.069Z,101414.25
2022-08-30T04:10:50.864Z,101415.56
2022-08-30T04:13:18.157Z,101416.16
2022-08-30T04:15:45.402Z,101419.22
2022-08-30T04:18:12.790Z,101418.16
2022-08-30T04:20:40.006Z,101413.31
2022-08-30T04:23:07.814Z,101415.16
2022-08-30T04:25:39.312Z,101422.94
2022-08-30T04:28:07.548Z,101425.41
2022-08-30T04:30:38.443Z,101424.28
2022-08-30T04:33:05.637Z,101427.19
2022-08-30T04:35:32.785Z,101436.59
2022-08-30T04:38:00.008Z,101443.63
2022-08-30T04:40:27.201Z,101437.03
2022-08-30T04:42:54.624Z,101445.19
2022-08-30T04:45:22.274Z,101451.25
2022-08-30T04:47:49.566Z,101448.38
2022-08-30T04:50:23.221Z,101452.69
2022-08-30T04:52:50.478Z,101448.75
2022-08-30T04:55:20.262Z,101458.19
2022-08-30T04:57:48.709Z,101453.47
2022-08-30T05:00:16.114Z,101450.06
2022-08-30T05:02:43.368Z,101454.97
2022-08-30T05:05:39.862Z,101450.91
2022-08-30T05:08:09.750Z,101450.00
2022-08-30T05:10:40.866Z,101449.72
2022-08-30T05:13:10.960Z,101450.13
2022-08-30T05:15:41.535Z,101450.91
2022-08-30T05:18:11.405Z,101454.31
2022-08-30T05:20:43.310Z,101455.16
2022-08-30T05:23:10.890Z,101457.06
2022-08-30T05:25:41.017Z,101461.91
2022-08-30T05:28:09.335Z,101451.00
2022-08-30T05:30:38.458Z,101466.81
2022-08-30T05:33:05.767Z,101461.38
2022-08-30T05:35:33.100Z,101468.25
2022-08-30T05:38:02.706Z,101471.63
2022-08-30T05:40:30.367Z,101471.53
2022-08-30T05:42:58.583Z,101468.88
2022-08-30T05:45:25.801Z,101475.38
2022-08-30T05:47:52.964Z,101477.84
2022-08-30T05:50:20.308Z,101474.50
2022-08-30T05:52:47.444Z,101477.31
2022-08-30T05:55:19.024Z,101471.06
2022-08-30T05:57:46.340Z,101476.47
2022-08-30T06:00:18.135Z,101468.97
2022-08-30T06:02:46.063Z,101471.00
2022-08-30T06:05:15.826Z,101477.06
2022-08-30T06:07:43.896Z,101467.56
2022-08-30T06:10:12.571Z,101475.72
2022-08-30T06:12:40.202Z,101464.84
2022-08-30T06:15:08.522Z,101470.00
2022-08-30T06:17:39.914Z,101477.31
2022-08-30T06:20:10.769Z,101469.75
2022-08-30T06:22:39.018Z,101476.72
2022-08-30T06:25:07.133Z,101475.72
2022-08-30T06:27:34.336Z,101474.00
2022-08-30T06:30:01.813Z,101476.44
2022-08-30T06:32:29.158Z,101480.19
2022-08-30T06:34:56.321Z,101478.66
2022-08-30T06:37:30.126Z,101479.91
2022-08-30T06:40:38.385Z,101475.66
2022-08-30T06:43:05.467Z,101480.16
2022-08-30T06:45:35.552Z,101487.13
2022-08-30T06:48:03.217Z,101484.41
2022-08-30T06:50:32.034Z,101478.22
2022-08-30T06:53:05.656Z,101480.31
2022-08-30T06:55:36.127Z,101479.91
2022-08-30T06:58:04.578Z,101486.41
2022-08-30T07:00:31.832Z,101493.97
2022-08-30T07:02:59.276Z,101489.78
2022-08-30T07:05:26.409Z,101495.88
2022-08-30T07:07:54.580Z,101492.25
2022-08-30T07:10:22.236Z,101493.47
2022-08-30T07:12:49.836Z,101502.38
2022-08-30T07:15:20.645Z,101507.81
2022-08-30T07:18:06.519Z,101502.56
2022-08-30T07:20:40.624Z,101506.09
2022-08-30T07:23:09.503Z,101510.63
2022-08-30T07:25:41.490Z,101517.97
2022-08-30T07:28:12.734Z,101517.69
2022-08-30T07:30:41.365Z,101522.00
2022-08-30T07:33:09.379Z,101530.19
2022-08-30T07:35:37.362Z,101524.13
2022-08-30T07:38:04.821Z,101528.09
2022-08-30T07:40:34.545Z,101531.91
2022-08-30T07:43:02.409Z,101531.69
2022-08-30T07:45:29.570Z,101539.69
2022-08-30T07:47:57.776Z,101540.59
2022-08-30T07:50:25.239Z,101538.91
2022-08-30T07:52:52.379Z,101534.44
2022-08-30T07:55:21.912Z,101537.63
2022-08-30T07:57:49.539Z,101536.88
2022-08-30T08:00:17.024Z,101540.06
2022-08-30T08:02:45.292Z,101544.19
2022-08-30T08:05:17.675Z,101544.38
2022-08-30T08:07:46.159Z,101544.13
2022-08-30T08:10:13.818Z,101548.44
2022-08-30T08:12:45.816Z,101539.59
2022-08-30T08:15:13.070Z,101548.47
2022-08-30T08:17:40.172Z,101542.56
2022-08-30T08:20:07.967Z,101549.97
2022-08-30T08:22:40.074Z,101549.97
2022-08-30T08:25:08.040Z,101550.28
2022-08-30T08:27:35.104Z,101555.75
2022-08-30T08:30:05.581Z,101556.94
2022-08-30T08:32:35.241Z,101546.06
2022-08-30T08:35:02.338Z,101548.59
2022-08-30T08:37:31.715Z,101537.97
2022-08-30T08:39:58.897Z,101548.44
2022-08-30T08:42:41.873Z,101549.38
2022-08-30T08:45:17.562Z,101546.56
2022-08-30T08:48:26.466Z,101550.53
2022-08-30T08:51:16.107Z,101541.22
2022-08-30T08:53:53.554Z,101542.72
2022-08-30T08:56:23.183Z,101544.34
2022-08-30T08:58:57.878Z,101545.28
2022-08-30T09:01:30.459Z,101543.38
2022-08-30T09:04:02.095Z,101541.25
2022-08-30T09:06:46.367Z,101549.50
2022-08-30T09:09:18.911Z,101547.47
2022-08-30T09:11:48.082Z,101542.78
2022-08-30T09:14:21.954Z,101542.91
2022-08-30T09:16:51.874Z,101541.34
2022-08-30T09:19:39.822Z,101543.03
2022-08-30T09:22:33.670Z,101550.53
2022-08-30T09:25:11.016Z,101551.63
2022-08-30T09:27:48.473Z,101557.09
2022-08-30T09:30:18.670Z,101544.78
2022-08-30T09:33:21.424Z,101543.78
2022-08-30T09:35:52.272Z,101552.00
2022-08-30T09:38:28.959Z,101546.97
2022-08-30T09:40:59.855Z,101554.47
2022-08-30T09:43:32.962Z,101553.78
2022-08-30T09:46:02.588Z,101552.97
2022-08-30T09:48:42.517Z,101558.34
2022-08-30T09:51:20.274Z,101551.25
2022-08-30T09:57:12.898Z,101549.94
2022-08-30T10:00:07.002Z,101559.16
2022-08-30T10:03:03.294Z,101562.94
2022-08-30T10:05:41.924Z,101562.72
2022-08-30T10:08:38.325Z,101561.31
2022-08-30T10:11:24.338Z,101556.50
2022-08-30T10:14:15.523Z,101553.28
2022-08-30T10:17:10.046Z,101563.59
2022-08-30T10:19:51.370Z,101573.63
2022-08-30T10:22:31.499Z,101571.56
2022-08-30T10:25:16.129Z,101560.34
2022-08-30T10:27:54.197Z,101553.50
2022-08-30T10:30:23.125Z,101551.25
2022-08-30T10:32:51.146Z,101555.34
2022-08-30T10:35:34.069Z,101557.72
2022-08-30T10:38:16.290Z,101550.19
2022-08-30T10:41:09.034Z,101560.84
2022-08-30T10:44:08.208Z,101553.16
2022-08-30T10:46:48.070Z,101550.84
2022-08-30T10:49:21.431Z,101546.75
2022-08-30T10:52:14.077Z,101534.03
2022-08-30T10:55:02.895Z,101538.75
2022-08-30T10:57:32.664Z,101527.66
2022-08-30T11:00:27.284Z,101533.56
2022-08-30T11:03:24.744Z,101540.38
2022-08-30T11:06:54.894Z,101551.53
2022-08-30T11:09:39.231Z,101546.63
2022-08-30T11:12:34.283Z,101545.06
2022-08-30T11:15:24.780Z,101546.03
2022-08-30T11:18:01.664Z,101544.53
2022-08-30T11:20:44.812Z,101546.38
2022-08-30T11:23:38.833Z,101550.34
2022-08-30T11:26:15.955Z,101550.94
2022-08-30T11:28:48.395Z,101549.13
2022-08-30T11:31:21.049Z,101541.75
2022-08-30T11:34:00.946Z,101542.69
2022-08-30T11:36:46.148Z,101531.66
2022-08-30T11:39:47.638Z,101544.31
2022-08-30T11:42:32.110Z,101551.34
2022-08-30T11:45:36.231Z,101534.47
2022-08-30T11:48:10.050Z,101536.91
2022-08-30T11:51:06.041Z,101530.97
2022-08-30T11:53:51.005Z,101534.47
2022-08-30T11:56:33.619Z,101532.78
2022-08-30T11:59:47.292Z,101525.94
2022-08-30T12:02:59.330Z,101520.41
2022-08-30T12:05:39.746Z,101519.00
2022-08-30T12:08:08.113Z,101518.81
2022-08-30T12:10:57.473Z,101535.59
2022-08-30T12:13:37.149Z,101523.88
2022-08-30T12:16:09.468Z,101510.31
2022-08-30T12:18:43.350Z,101523.31
2022-08-30T12:21:21.365Z,101519.56
2022-08-30T12:24:04.172Z,101520.19
2022-08-30T12:26:36.067Z,101515.81
2022-08-30T12:29:16.703Z,101515.81
2022-08-30T12:32:00.383Z,101520.88
2022-08-30T12:34:50.685Z,101508.81
2022-08-30T12:37:38.074Z,101508.28
2022-08-30T12:40:14.007Z,101513.56
2022-08-30T12:42:52.420Z,101518.47
2022-08-30T12:45:24.531Z,101501.22
2022-08-30T12:48:05.837Z,101501.91
2022-08-30T12:50:51.833Z,101506.25
2022-08-30T12:53:42.183Z,101505.69
2022-08-30T12:56:13.713Z,101503.94
2022-08-30T12:58:50.987Z,101499.69
2022-08-30T13:01:37.384Z,101504.75
2022-08-30T13:04:27.463Z,101499.66
2022-08-30T13:07:23.964Z,101502.06
2022-08-30T13:09:59.102Z,101502.06
2022-08-30T13:12:28.885Z,101498.38
2022-08-30T13:15:16.689Z,101505.75
2022-08-30T13:17:46.679Z,101506.88
2022-08-30T13:20:16.743Z,101509.88
2022-08-30T13:23:09.824Z,101506.59
2022-08-30T13:25:39.713Z,101504.63
2022-08-30T13:28:07.826Z,101503.31
2022-08-30T13:30:37.986Z,101509.84
2022-08-30T13:33:05.076Z,101511.84
2022-08-30T13:35:33.287Z,101509.31
2022-08-30T13:38:04.338Z,101502.50
2022-08-30T13:40:31.581Z,101501.66
2022-08-30T13:42:59.283Z,101503.50
2022-08-30T13:45:44.673Z,101510.19
2022-08-30T13:48:13.984Z,101507.47
2022-08-30T13:50:43.764Z,101506.97
2022-08-30T13:53:13.270Z,101501.56
2022-08-30T13:55:43.035Z,101501.28
2022-08-30T13:58:13.716Z,101488.09
2022-08-30T14:00:41.278Z,101492.88
2022-08-30T14:03:08.425Z,101494.78
2022-08-30T14:06:15.679Z,101497.66
2022-08-30T14:08:48.897Z,101488.81
2022-08-30T14:11:22.888Z,101481.69
2022-08-30T14:16:42.469Z,101480.19
2022-08-30T14:19:14.057Z,101481.06
2022-08-30T14:21:41.984Z,101476.75
2022-08-30T14:24:10.999Z,101485.41
2022-08-30T14:26:49.668Z,101479.88
2022-08-30T14:29:22.252Z,101477.88
2022-08-30T14:31:52.177Z,101477.56
2022-08-30T14:34:19.444Z,101474.13
2022-08-30T14:36:47.451Z,101481.22
2022-08-30T14:39:18.823Z,101491.81
2022-08-30T14:41:53.342Z,101477.66
2022-08-30T14:44:22.572Z,101478.31
2022-08-30T14:46:58.603Z,101480.75
2022-08-30T14:49:27.707Z,101466.41
2022-08-30T14:51:55.492Z,101478.03
2022-08-30T14:54:26.746Z,101473.94
2022-08-30T14:56:55.077Z,101472.88
2022-08-30T14:59:23.434Z,101472.19
2022-08-30T15:01:50.487Z,101475.81
2022-08-30T15:04:21.436Z,101472.00
2022-08-30T15:06:50.441Z,101473.72
2022-08-30T15:09:23.592Z,101470.22
2022-08-30T15:11:53.519Z,101470.16
2022-08-30T15:14:30.838Z,101462.44
2022-08-30T15:16:59.593Z,101459.81
2022-08-30T15:19:27.049Z,101460.03
2022-08-30T15:21:54.396Z,101461.59
2022-08-30T15:24:25.016Z,101458.06
2022-08-30T15:27:00.399Z,101463.56
2022-08-30T15:29:30.723Z,101453.72
2022-08-30T15:32:01.935Z,101457.28
2022-08-30T15:34:30.261Z,101462.03
2022-08-30T15:37:00.779Z,101470.56
2022-08-30T15:39:27.976Z,101469.63
2022-08-30T15:42:00.688Z,101471.91
2022-08-30T15:44:34.520Z,101476.31
2022-08-30T15:47:04.538Z,101473.78
2022-08-30T15:49:32.065Z,101475.81
2022-08-30T15:52:05.488Z,101478.03
2022-08-30T15:54:34.870Z,101478.28
2022-08-30T15:57:02.208Z,101480.31
2022-08-30T15:59:33.460Z,101476.50
2022-08-30T16:02:00.595Z,101475.78
2022-08-30T16:04:27.803Z,101478.25
2022-08-30T16:06:54.924Z,101478.19
2022-08-30T16:09:29.961Z,101483.56
2022-08-30T16:12:00.684Z,101491.97
2022-08-30T16:14:28.042Z,101487.56
2022-08-30T16:16:55.479Z,101485.84
2022-08-30T16:19:22.764Z,101490.44
2022-08-30T16:21:50.239Z,101482.75
2022-08-30T16:24:18.965Z,101491.44
2022-08-30T16:26:50.249Z,101483.84
2022-08-30T16:29:17.521Z,101487.00
2022-08-30T16:31:45.343Z,101496.13
2022-08-30T16:34:17.343Z,101489.56
2022-08-30T16:36:47.518Z,101487.97
2022-08-30T16:39:17.752Z,101492.75
2022-08-30T16:41:45.637Z,101489.50
2022-08-30T16:44:13.741Z,101488.19
2022-08-30T16:46:43.453Z,101496.28
2022-08-30T16:49:19.707Z,101491.00
2022-08-30T16:51:48.884Z,101490.94
2022-08-30T16:54:17.604Z,101497.28
2022-08-30T16:56:45.717Z,101505.13
2022-08-30T16:59:14.605Z,101504.34
2022-08-30T17:01:44.743Z,101503.25
2022-08-30T17:04:15.895Z,101505.91
2022-08-30T17:06:50.097Z,101508.84
2022-08-30T17:09:20.516Z,101516.88
2022-08-30T17:11:50.627Z,101517.50
2022-08-30T17:14:27.608Z,101511.41
2022-08-30T17:17:00.409Z,101524.66
2022-08-30T17:19:28.803Z,101516.19
2022-08-30T17:21:58.122Z,101523.59
2022-08-30T17:24:30.910Z,101535.28
2022-08-30T17:27:07.803Z,101527.91
2022-08-30T17:29:35.088Z,101531.41
2022-08-30T17:32:04.206Z,101535.63
2022-08-30T17:34:39.902Z,101533.63
2022-08-30T17:37:10.893Z,101539.00
2022-08-30T17:39:41.200Z,101544.34
2022-08-30T17:42:08.552Z,101554.22
2022-08-30T17:44:42.311Z,101556.16
2022-08-30T17:47:10.328Z,101555.63
2022-08-30T17:49:40.909Z,101563.75
2022-08-30T17:52:08.537Z,101565.94
2022-08-30T17:54:41.205Z,101564.34
2022-08-30T17:57:13.275Z,101568.13
2022-08-30T17:59:45.274Z,101565.31
2022-08-30T18:02:15.049Z,101571.59
2022-08-30T18:04:43.700Z,101576.50
2022-08-30T18:07:17.506Z,101574.59
2022-08-30T18:09:47.926Z,101571.66
2022-08-30T18:12:16.631Z,101575.75
2022-08-30T18:14:47.208Z,101581.16
2022-08-30T18:17:21.864Z,101583.25
2022-08-30T18:19:49.743Z,101581.19
2022-08-30T18:25:08.407Z,101581.75
2022-08-30T18:30:31.146Z,101590.59
2022-08-30T18:33:04.132Z,101590.63
2022-08-30T18:35:34.106Z,101590.69
2022-08-30T18:38:03.891Z,101590.03
2022-08-30T18:40:31.308Z,101593.59
2022-08-30T18:42:58.473Z,101589.75
2022-08-30T18:45:25.696Z,101589.28
2022-08-30T18:47:52.894Z,101594.84
2022-08-30T18:50:20.829Z,101597.78
2022-08-30T18:52:47.926Z,101597.09
2022-08-30T18:55:17.708Z,101602.22
2022-08-30T18:57:45.292Z,101606.84
2022-08-30T19:00:17.143Z,101600.94
2022-08-30T19:02:47.121Z,101605.03
2022-08-30T19:05:16.910Z,101606.34
2022-08-30T19:07:49.296Z,101612.34
2022-08-30T19:10:26.395Z,101603.59
2022-08-30T19:12:53.738Z,101604.94
2022-08-30T19:15:22.961Z,101609.84
2022-08-30T19:17:53.713Z,101610.22
2022-08-30T19:20:23.631Z,101613.03
2022-08-30T19:25:42.214Z,101609.41
2022-08-30T19:28:11.002Z,101614.53
2022-08-30T19:30:38.881Z,101617.44
2022-08-30T19:33:06.461Z,101618.38
2022-08-30T19:35:33.774Z,101616.38
2022-08-30T19:38:01.097Z,101617.00
2022-08-30T19:40:28.807Z,101616.63
2022-08-30T19:42:56.080Z,101612.19
2022-08-30T19:45:24.401Z,101616.34
2022-08-30T19:47:53.374Z,101613.81
2022-08-30T19:50:25.039Z,101616.56
2022-08-30T19:52:54.771Z,101615.84
2022-08-30T19:55:28.468Z,101614.88
2022-08-30T19:57:57.150Z,101617.22
2022-08-30T20:00:24.357Z,101622.91
2022-08-30T20:02:52.086Z,101630.22
2022-08-30T20:05:21.444Z,101636.44
2022-08-30T20:07:51.052Z,101625.66
2022-08-30T20:10:26.401Z,101627.81
2022-08-30T20:12:55.782Z,101625.41
2022-08-30T20:15:26.381Z,101625.03
2022-08-30T20:18:13.629Z,101622.06
2022-08-30T20:20:48.541Z,101628.00
2022-08-30T20:23:17.703Z,101618.38
2022-08-30T20:24:27.958Z,101581.44
2022-08-30T20:24:28.064Z,101580.00
2022-08-30T20:24:33.406Z,101613.84
2022-08-30T20:25:50.848Z,101628.06
2022-08-30T20:28:19.444Z,101624.31
2022-08-30T20:30:47.340Z,101629.97
2022-08-30T20:33:14.610Z,101624.41
2022-08-30T20:35:49.041Z,101624.66
2022-08-30T20:38:21.852Z,101630.78
2022-08-30T20:40:56.845Z,101630.97
2022-08-30T20:43:31.674Z,101626.66
2022-08-30T20:45:59.460Z,101632.66
2022-08-30T20:48:31.506Z,101635.88
2022-08-30T20:51:01.979Z,101639.66
2022-08-30T20:53:29.612Z,101639.84
2022-08-30T20:55:56.809Z,101649.13
2022-08-30T20:58:24.042Z,101641.75
2022-08-30T21:00:54.166Z,101646.97
2022-08-30T21:03:28.216Z,101654.50
2022-08-30T21:06:00.072Z,101648.59
2022-08-30T21:08:27.697Z,101649.66
2022-08-30T21:10:55.469Z,101644.25
2022-08-30T21:13:23.204Z,101640.97
2022-08-30T21:16:00.548Z,101641.47
2022-08-30T21:18:34.112Z,101650.16
2022-08-30T21:21:21.245Z,101659.03
2022-08-30T21:23:53.486Z,101658.19
2022-08-30T21:26:20.823Z,101660.97
2022-08-30T21:28:52.990Z,101664.34
2022-08-30T21:31:23.135Z,101663.19
2022-08-30T21:33:52.294Z,101663.50
2022-08-30T21:36:41.290Z,101661.09
2022-08-30T21:39:08.918Z,101659.63
2022-08-30T21:41:37.475Z,101654.97
2022-08-30T21:44:10.225Z,101651.53
2022-08-30T21:46:37.900Z,101652.28
2022-08-30T21:49:09.727Z,101657.34
2022-08-30T21:51:40.713Z,101651.34
2022-08-30T21:54:09.947Z,101656.13
2022-08-30T21:56:41.806Z,101655.00
2022-08-30T21:59:14.606Z,101649.50
2022-08-30T22:01:43.202Z,101649.81
2022-08-30T22:04:11.305Z,101654.91
2022-08-30T22:06:40.263Z,101657.13
2022-08-30T22:09:09.847Z,101657.09
2022-08-30T22:11:37.631Z,101655.16
2022-08-30T22:14:06.210Z,101663.34
2022-08-30T22:16:33.867Z,101655.06
2022-08-30T22:19:04.043Z,101659.63
2022-08-30T22:21:33.695Z,101656.75
2022-08-30T22:24:03.858Z,101648.13
2022-08-30T22:26:33.096Z,101654.59
2022-08-30T22:29:00.318Z,101648.63
2022-08-30T22:31:27.667Z,101652.25
2022-08-30T22:33:55.103Z,101642.00
2022-08-30T22:36:32.628Z,101649.91
2022-08-30T22:39:01.336Z,101649.97
2022-08-30T22:41:31.354Z,101654.88
2022-08-30T22:43:58.924Z,101651.44
2022-08-30T22:46:34.236Z,101652.91
2022-08-30T22:49:04.923Z,101652.53
2022-08-30T22:51:32.284Z,101653.97
2022-08-30T22:54:10.631Z,101655.19
2022-08-30T22:56:39.009Z,101652.81
2022-08-30T22:59:08.938Z,101654.09
2022-08-30T23:01:38.909Z,101652.16
2022-08-30T23:04:08.241Z,101655.59
2022-08-30T23:06:35.603Z,101653.38
2022-08-30T23:09:06.433Z,101666.41
2022-08-30T23:11:35.816Z,101657.63
2022-08-30T23:14:04.378Z,101656.50
2022-08-30T23:16:34.647Z,101669.59
2022-08-30T23:19:01.899Z,101659.94
2022-08-30T23:21:30.194Z,101661.88
2022-08-30T23:24:17.248Z,101664.66
2022-08-30T23:27:03.721Z,101665.13
2022-08-30T23:29:49.906Z,101667.63
2022-08-30T23:32:35.732Z,101668.53
2022-08-30T23:35:25.105Z,101666.72
2022-08-30T23:38:17.136Z,101664.38
2022-08-30T23:41:03.494Z,101670.25
2022-08-30T23:43:49.177Z,101669.78
2022-08-30T23:46:35.341Z,101672.91
2022-08-30T23:49:20.897Z,101672.00
2022-08-30T23:52:06.406Z,101669.78
2022-08-30T23:54:55.774Z,101673.41
2022-08-30T23:57:44.684Z,101676.81
